sensor_id;sensor_type;location;lat;lon;timestamp;temperature;humidity
47521;DHT22;32291;52.010;4.446;2022-12-20T00:00:49;10.10;99.90
47521;DHT22;32291;52.010;4.446;2022-12-20T00:01:51;10.10;99.90
47521;DHT22;32291;52.010;4.446;2022-12-20T00:03:56;10.20;99.90
47521;DHT22;32291;52.010;4.446;2022-12-20T00:06:02;10.10;99.90
47521;DHT22;32291;52.010;4.446;2022-12-20T00:07:04;10.10;99.90
47521;DHT22;32291;52.010;4.446;2022-12-20T00:08:07;10.10;99.90
47521;DHT22;32291;52.010;4.446;2022-12-20T00:09:10;10.10;99.90
47521;DHT22;32291;52.010;4.446;2022-12-20T00:10:13;10.10;99.90
47521;DHT22;32291;52.010;4.446;2022-12-20T00:11:14;10.20;99.90
47521;DHT22;32291;52.010;4.446;2022-12-20T00:12:16;10.20;99.90
47521;DHT22;32291;52.010;4.446;2022-12-20T00:13:18;10.20;99.90
47521;DHT22;32291;52.010;4.446;2022-12-20T00:14:19;10.10;99.90
47521;DHT22;32291;52.010;4.446;2022-12-20T00:15:21;10.10;99.90
47521;DHT22;32291;52.010;4.446;2022-12-20T00:16:27;10.20;99.90
47521;DHT22;32291;52.010;4.446;2022-12-20T00:17:30;10.20;99.90
47521;DHT22;32291;52.010;4.446;2022-12-20T00:18:32;10.20;99.90
47521;DHT22;32291;52.010;4.446;2022-12-20T00:19:34;10.10;99.90
47521;DHT22;32291;52.010;4.446;2022-12-20T00:20:36;10.10;99.90
47521;DHT22;32291;52.010;4.446;2022-12-20T00:21:38;10.10;99.90
47521;DHT22;32291;52.010;4.446;2022-12-20T00:22:39;10.10;99.90
47521;DHT22;32291;52.010;4.446;2022-12-20T00:23:41;10.10;99.90
47521;DHT22;32291;52.010;4.446;2022-12-20T00:24:43;10.00;99.90
47521;DHT22;32291;52.010;4.446;2022-12-20T00:25:44;10.00;99.90
47521;DHT22;32291;52.010;4.446;2022-12-20T00:26:46;10.10;99.90
47521;DHT22;32291;52.010;4.446;2022-12-20T00:27:48;10.00;99.90
47521;DHT22;32291;52.010;4.446;2022-12-20T00:28:50;10.00;99.90
47521;DHT22;32291;52.010;4.446;2022-12-20T00:30:55;10.00;99.90
47521;DHT22;32291;52.010;4.446;2022-12-20T00:31:56;10.10;99.90
47521;DHT22;32291;52.010;4.446;2022-12-20T00:32:58;9.90;99.90
47521;DHT22;32291;52.010;4.446;2022-12-20T00:34:00;10.00;99.90
47521;DHT22;32291;52.010;4.446;2022-12-20T00:35:02;10.00;99.90
47521;DHT22;32291;52.010;4.446;2022-12-20T00:36:05;10.10;99.90
47521;DHT22;32291;52.010;4.446;2022-12-20T00:37:07;10.10;99.90
47521;DHT22;32291;52.010;4.446;2022-12-20T00:38:09;10.10;99.90
47521;DHT22;32291;52.010;4.446;2022-12-20T00:39:11;10.00;99.90
47521;DHT22;32291;52.010;4.446;2022-12-20T00:41:20;10.10;99.90
47521;DHT22;32291;52.010;4.446;2022-12-20T00:42:24;10.00;99.90
47521;DHT22;32291;52.010;4.446;2022-12-20T00:43:26;9.90;99.90
47521;DHT22;32291;52.010;4.446;2022-12-20T00:44:29;9.90;99.90
47521;DHT22;32291;52.010;4.446;2022-12-20T00:47:35;9.90;99.90
47521;DHT22;32291;52.010;4.446;2022-12-20T00:48:37;9.90;99.90
47521;DHT22;32291;52.010;4.446;2022-12-20T00:49:40;9.90;99.90
47521;DHT22;32291;52.010;4.446;2022-12-20T00:50:42;9.90;99.90
47521;DHT22;32291;52.010;4.446;2022-12-20T00:51:43;9.80;99.90
47521;DHT22;32291;52.010;4.446;2022-12-20T00:52:45;9.80;99.90
47521;DHT22;32291;52.010;4.446;2022-12-20T00:53:47;9.80;99.90
47521;DHT22;32291;52.010;4.446;2022-12-20T00:55:50;9.80;99.90
47521;DHT22;32291;52.010;4.446;2022-12-20T00:56:52;9.90;99.90
47521;DHT22;32291;52.010;4.446;2022-12-20T00:57:54;9.80;99.90
47521;DHT22;32291;52.010;4.446;2022-12-20T00:58:57;9.80;99.90
47521;DHT22;32291;52.010;4.446;2022-12-20T01:01:03;9.80;99.90
47521;DHT22;32291;52.010;4.446;2022-12-20T01:03:10;9.70;99.90
47521;DHT22;32291;52.010;4.446;2022-12-20T01:04:12;9.70;99.90
47521;DHT22;32291;52.010;4.446;2022-12-20T01:07:18;9.70;99.90
47521;DHT22;32291;52.010;4.446;2022-12-20T01:08:21;9.70;99.90
47521;DHT22;32291;52.010;4.446;2022-12-20T01:09:24;9.70;99.90
47521;DHT22;32291;52.010;4.446;2022-12-20T01:10:26;9.70;99.90
47521;DHT22;32291;52.010;4.446;2022-12-20T01:11:31;9.70;99.90
47521;DHT22;32291;52.010;4.446;2022-12-20T01:12:35;9.80;99.90
47521;DHT22;32291;52.010;4.446;2022-12-20T01:13:38;9.70;99.90
47521;DHT22;32291;52.010;4.446;2022-12-20T01:14:42;9.70;99.90
47521;DHT22;32291;52.010;4.446;2022-12-20T01:15:44;9.70;99.90
47521;DHT22;32291;52.010;4.446;2022-12-20T01:16:47;9.60;99.90
47521;DHT22;32291;52.010;4.446;2022-12-20T01:17:48;9.70;99.90
47521;DHT22;32291;52.010;4.446;2022-12-20T01:18:51;9.60;99.90
47521;DHT22;32291;52.010;4.446;2022-12-20T01:19:53;9.60;99.90
47521;DHT22;32291;52.010;4.446;2022-12-20T01:21:03;9.70;99.90
47521;DHT22;32291;52.010;4.446;2022-12-20T01:22:09;9.60;99.90
47521;DHT22;32291;52.010;4.446;2022-12-20T01:24:16;9.70;99.90
47521;DHT22;32291;52.010;4.446;2022-12-20T01:25:19;9.70;99.90
47521;DHT22;32291;52.010;4.446;2022-12-20T01:26:23;9.70;99.90
47521;DHT22;32291;52.010;4.446;2022-12-20T01:27:26;9.70;99.90
47521;DHT22;32291;52.010;4.446;2022-12-20T01:28:29;9.80;99.90
47521;DHT22;32291;52.010;4.446;2022-12-20T01:30:39;9.80;99.90
47521;DHT22;32291;52.010;4.446;2022-12-20T01:31:42;9.80;99.90
47521;DHT22;32291;52.010;4.446;2022-12-20T01:32:44;9.80;99.90
47521;DHT22;32291;52.010;4.446;2022-12-20T01:33:48;9.90;99.90
47521;DHT22;32291;52.010;4.446;2022-12-20T01:34:52;10.00;99.90
47521;DHT22;32291;52.010;4.446;2022-12-20T01:36:04;9.80;99.90
47521;DHT22;32291;52.010;4.446;2022-12-20T01:37:09;9.90;99.90
47521;DHT22;32291;52.010;4.446;2022-12-20T01:38:10;9.90;99.90
47521;DHT22;32291;52.010;4.446;2022-12-20T01:39:15;9.90;99.90
47521;DHT22;32291;52.010;4.446;2022-12-20T01:40:17;9.90;99.90
47521;DHT22;32291;52.010;4.446;2022-12-20T01:41:21;9.90;99.90
47521;DHT22;32291;52.010;4.446;2022-12-20T01:42:22;9.90;99.90
47521;DHT22;32291;52.010;4.446;2022-12-20T01:43:25;10.00;99.90
47521;DHT22;32291;52.010;4.446;2022-12-20T01:44:56;10.00;99.90
47521;DHT22;32291;52.010;4.446;2022-12-20T01:45:59;10.10;99.90
47521;DHT22;32291;52.010;4.446;2022-12-20T01:47:01;10.00;99.90
47521;DHT22;32291;52.010;4.446;2022-12-20T01:48:04;10.00;99.90
47521;DHT22;32291;52.010;4.446;2022-12-20T01:50:23;10.10;99.90
47521;DHT22;32291;52.010;4.446;2022-12-20T01:51:26;10.20;99.90
47521;DHT22;32291;52.010;4.446;2022-12-20T01:52:37;10.10;99.90
47521;DHT22;32291;52.010;4.446;2022-12-20T01:53:43;10.10;99.90
47521;DHT22;32291;52.010;4.446;2022-12-20T01:54:54;10.10;99.90
47521;DHT22;32291;52.010;4.446;2022-12-20T01:56:02;10.10;99.90
47521;DHT22;32291;52.010;4.446;2022-12-20T01:57:11;10.10;99.90
47521;DHT22;32291;52.010;4.446;2022-12-20T01:58:17;10.10;99.90
47521;DHT22;32291;52.010;4.446;2022-12-20T01:59:20;10.00;99.90
47521;DHT22;32291;52.010;4.446;2022-12-20T02:00:22;10.00;99.90
47521;DHT22;32291;52.010;4.446;2022-12-20T02:01:24;10.20;99.90
47521;DHT22;32291;52.010;4.446;2022-12-20T02:02:26;10.20;99.90
47521;DHT22;32291;52.010;4.446;2022-12-20T02:03:29;10.20;99.90
47521;DHT22;32291;52.010;4.446;2022-12-20T02:04:31;10.10;99.90
47521;DHT22;32291;52.010;4.446;2022-12-20T02:05:42;10.10;99.90
47521;DHT22;32291;52.010;4.446;2022-12-20T02:07:50;10.10;99.90
47521;DHT22;32291;52.010;4.446;2022-12-20T02:08:57;10.10;99.90
47521;DHT22;32291;52.010;4.446;2022-12-20T02:10:01;10.00;99.90
47521;DHT22;32291;52.010;4.446;2022-12-20T02:12:45;10.00;99.90
47521;DHT22;32291;52.010;4.446;2022-12-20T02:15:50;10.10;99.90
47521;DHT22;32291;52.010;4.446;2022-12-20T02:18:32;10.00;99.90
47521;DHT22;32291;52.010;4.446;2022-12-20T02:30:07;9.90;99.90
47521;DHT22;32291;52.010;4.446;2022-12-20T02:31:31;9.90;99.90
47521;DHT22;32291;52.010;4.446;2022-12-20T02:32:58;9.80;99.90
47521;DHT22;32291;52.010;4.446;2022-12-20T02:34:03;9.90;99.90
47521;DHT22;32291;52.010;4.446;2022-12-20T02:35:09;9.90;99.90
47521;DHT22;32291;52.010;4.446;2022-12-20T02:36:16;9.90;99.90
47521;DHT22;32291;52.010;4.446;2022-12-20T02:37:18;10.00;99.90
47521;DHT22;32291;52.010;4.446;2022-12-20T02:38:30;9.90;99.90
47521;DHT22;32291;52.010;4.446;2022-12-20T02:39:36;9.90;99.90
47521;DHT22;32291;52.010;4.446;2022-12-20T02:40:42;10.00;99.90
47521;DHT22;32291;52.010;4.446;2022-12-20T02:41:50;10.00;99.90
47521;DHT22;32291;52.010;4.446;2022-12-20T02:42:58;10.00;99.90
47521;DHT22;32291;52.010;4.446;2022-12-20T02:44:08;10.10;99.90
47521;DHT22;32291;52.010;4.446;2022-12-20T02:45:36;10.00;99.90
47521;DHT22;32291;52.010;4.446;2022-12-20T02:46:38;10.10;99.90
47521;DHT22;32291;52.010;4.446;2022-12-20T02:48:57;10.30;99.90
47521;DHT22;32291;52.010;4.446;2022-12-20T02:50:03;10.00;99.90
47521;DHT22;32291;52.010;4.446;2022-12-20T02:51:08;10.00;99.90
47521;DHT22;32291;52.010;4.446;2022-12-20T02:52:13;10.00;99.90
47521;DHT22;32291;52.010;4.446;2022-12-20T02:53:16;10.10;99.90
47521;DHT22;32291;52.010;4.446;2022-12-20T02:55:32;10.10;99.90
47521;DHT22;32291;52.010;4.446;2022-12-20T02:57:15;10.10;99.90
47521;DHT22;32291;52.010;4.446;2022-12-20T02:58:29;10.20;99.90
47521;DHT22;32291;52.010;4.446;2022-12-20T03:01:02;10.10;99.90
47521;DHT22;32291;52.010;4.446;2022-12-20T03:02:09;10.20;99.90
47521;DHT22;32291;52.010;4.446;2022-12-20T03:03:13;10.20;99.90
47521;DHT22;32291;52.010;4.446;2022-12-20T03:04:30;10.20;99.90
47521;DHT22;32291;52.010;4.446;2022-12-20T03:05:42;10.30;99.90
47521;DHT22;32291;52.010;4.446;2022-12-20T03:08:13;10.30;99.90
47521;DHT22;32291;52.010;4.446;2022-12-20T03:09:14;10.30;99.90
47521;DHT22;32291;52.010;4.446;2022-12-20T03:10:17;10.30;99.90
47521;DHT22;32291;52.010;4.446;2022-12-20T03:13:24;10.30;99.90
47521;DHT22;32291;52.010;4.446;2022-12-20T03:14:27;10.40;99.90
47521;DHT22;32291;52.010;4.446;2022-12-20T03:15:29;10.40;99.90
47521;DHT22;32291;52.010;4.446;2022-12-20T03:16:30;10.40;99.90
47521;DHT22;32291;52.010;4.446;2022-12-20T03:17:32;10.40;99.90
47521;DHT22;32291;52.010;4.446;2022-12-20T03:18:34;10.40;99.90
47521;DHT22;32291;52.010;4.446;2022-12-20T03:19:35;10.40;99.90
47521;DHT22;32291;52.010;4.446;2022-12-20T03:20:37;10.50;99.90
47521;DHT22;32291;52.010;4.446;2022-12-20T03:21:39;10.50;99.90
47521;DHT22;32291;52.010;4.446;2022-12-20T03:22:42;10.50;99.90
47521;DHT22;32291;52.010;4.446;2022-12-20T03:23:44;10.50;99.90
47521;DHT22;32291;52.010;4.446;2022-12-20T03:25:47;10.50;99.90
47521;DHT22;32291;52.010;4.446;2022-12-20T03:26:49;10.50;99.90
47521;DHT22;32291;52.010;4.446;2022-12-20T03:27:50;10.50;99.90
47521;DHT22;32291;52.010;4.446;2022-12-20T03:28:52;10.60;99.90
47521;DHT22;32291;52.010;4.446;2022-12-20T03:29:54;10.60;99.90
47521;DHT22;32291;52.010;4.446;2022-12-20T03:30:56;10.70;99.90
47521;DHT22;32291;52.010;4.446;2022-12-20T03:32:59;10.70;99.90
47521;DHT22;32291;52.010;4.446;2022-12-20T03:34:01;10.60;99.90
47521;DHT22;32291;52.010;4.446;2022-12-20T03:35:04;10.60;99.90
47521;DHT22;32291;52.010;4.446;2022-12-20T03:37:09;10.70;99.90
47521;DHT22;32291;52.010;4.446;2022-12-20T03:39:12;10.60;99.90
47521;DHT22;32291;52.010;4.446;2022-12-20T03:40:14;10.60;99.90
47521;DHT22;32291;52.010;4.446;2022-12-20T03:41:16;10.70;99.90
47521;DHT22;32291;52.010;4.446;2022-12-20T03:42:19;10.70;99.90
47521;DHT22;32291;52.010;4.446;2022-12-20T03:43:20;10.70;99.90
47521;DHT22;32291;52.010;4.446;2022-12-20T03:44:22;10.70;99.90
47521;DHT22;32291;52.010;4.446;2022-12-20T03:45:25;10.70;99.90
47521;DHT22;32291;52.010;4.446;2022-12-20T03:46:27;10.70;99.90
47521;DHT22;32291;52.010;4.446;2022-12-20T03:47:29;10.70;99.90
47521;DHT22;32291;52.010;4.446;2022-12-20T03:48:31;10.70;99.90
47521;DHT22;32291;52.010;4.446;2022-12-20T03:49:32;10.90;99.90
47521;DHT22;32291;52.010;4.446;2022-12-20T03:50:34;10.80;99.90
47521;DHT22;32291;52.010;4.446;2022-12-20T03:51:37;10.70;99.90
47521;DHT22;32291;52.010;4.446;2022-12-20T03:52:39;10.70;99.90
47521;DHT22;32291;52.010;4.446;2022-12-20T03:53:41;10.80;99.90
47521;DHT22;32291;52.010;4.446;2022-12-20T03:54:42;10.80;99.90
47521;DHT22;32291;52.010;4.446;2022-12-20T03:55:44;10.80;99.90
47521;DHT22;32291;52.010;4.446;2022-12-20T03:56:45;10.70;99.90
47521;DHT22;32291;52.010;4.446;2022-12-20T03:57:47;10.80;99.90
47521;DHT22;32291;52.010;4.446;2022-12-20T03:59:50;10.70;99.90
47521;DHT22;32291;52.010;4.446;2022-12-20T04:00:55;10.70;99.90
47521;DHT22;32291;52.010;4.446;2022-12-20T04:01:57;10.80;99.90
47521;DHT22;32291;52.010;4.446;2022-12-20T04:02:59;10.80;99.90
47521;DHT22;32291;52.010;4.446;2022-12-20T04:04:02;10.80;99.90
47521;DHT22;32291;52.010;4.446;2022-12-20T04:05:05;10.90;99.90
47521;DHT22;32291;52.010;4.446;2022-12-20T04:06:07;10.80;99.90
47521;DHT22;32291;52.010;4.446;2022-12-20T04:07:09;10.80;99.90
47521;DHT22;32291;52.010;4.446;2022-12-20T04:08:11;10.80;99.90
47521;DHT22;32291;52.010;4.446;2022-12-20T04:09:14;10.80;99.90
47521;DHT22;32291;52.010;4.446;2022-12-20T04:10:15;10.80;99.90
47521;DHT22;32291;52.010;4.446;2022-12-20T04:11:17;10.80;99.90
47521;DHT22;32291;52.010;4.446;2022-12-20T04:12:19;10.70;99.90
47521;DHT22;32291;52.010;4.446;2022-12-20T04:13:21;10.80;99.90
47521;DHT22;32291;52.010;4.446;2022-12-20T04:14:23;10.70;99.90
47521;DHT22;32291;52.010;4.446;2022-12-20T04:15:24;10.70;99.90
47521;DHT22;32291;52.010;4.446;2022-12-20T04:16:28;10.70;99.90
47521;DHT22;32291;52.010;4.446;2022-12-20T04:17:30;10.80;99.90
47521;DHT22;32291;52.010;4.446;2022-12-20T04:18:31;10.80;99.90
47521;DHT22;32291;52.010;4.446;2022-12-20T04:19:33;8.40;99.90
47521;DHT22;32291;52.010;4.446;2022-12-20T04:20:35;10.70;99.90
47521;DHT22;32291;52.010;4.446;2022-12-20T04:21:37;10.80;99.90
47521;DHT22;32291;52.010;4.446;2022-12-20T04:22:39;10.80;99.90
47521;DHT22;32291;52.010;4.446;2022-12-20T04:23:42;10.80;99.90
47521;DHT22;32291;52.010;4.446;2022-12-20T04:24:43;10.80;99.90
47521;DHT22;32291;52.010;4.446;2022-12-20T04:25:45;10.80;99.90
47521;DHT22;32291;52.010;4.446;2022-12-20T04:26:46;10.70;99.90
47521;DHT22;32291;52.010;4.446;2022-12-20T04:27:49;10.80;99.90
47521;DHT22;32291;52.010;4.446;2022-12-20T04:28:52;10.70;99.90
47521;DHT22;32291;52.010;4.446;2022-12-20T04:29:54;10.70;99.90
47521;DHT22;32291;52.010;4.446;2022-12-20T04:30:57;10.70;99.90
47521;DHT22;32291;52.010;4.446;2022-12-20T04:31:59;10.60;99.90
47521;DHT22;32291;52.010;4.446;2022-12-20T04:33:04;10.60;99.90
47521;DHT22;32291;52.010;4.446;2022-12-20T04:34:06;10.60;99.90
47521;DHT22;32291;52.010;4.446;2022-12-20T04:36:11;10.60;99.90
47521;DHT22;32291;52.010;4.446;2022-12-20T04:37:13;10.60;99.90
47521;DHT22;32291;52.010;4.446;2022-12-20T04:38:15;10.70;99.90
47521;DHT22;32291;52.010;4.446;2022-12-20T04:39:17;10.60;99.90
47521;DHT22;32291;52.010;4.446;2022-12-20T04:40:19;10.60;99.90
47521;DHT22;32291;52.010;4.446;2022-12-20T04:42:24;10.60;99.90
47521;DHT22;32291;52.010;4.446;2022-12-20T04:43:26;10.50;99.90
47521;DHT22;32291;52.010;4.446;2022-12-20T04:44:28;10.60;99.90
47521;DHT22;32291;52.010;4.446;2022-12-20T04:45:30;10.50;99.90
47521;DHT22;32291;52.010;4.446;2022-12-20T04:46:31;10.50;99.90
47521;DHT22;32291;52.010;4.446;2022-12-20T04:47:33;10.50;99.90
47521;DHT22;32291;52.010;4.446;2022-12-20T04:48:35;10.50;99.90
47521;DHT22;32291;52.010;4.446;2022-12-20T04:49:37;10.50;99.90
47521;DHT22;32291;52.010;4.446;2022-12-20T04:50:39;10.50;99.90
47521;DHT22;32291;52.010;4.446;2022-12-20T04:51:41;10.50;99.90
47521;DHT22;32291;52.010;4.446;2022-12-20T04:52:43;12.40;99.90
47521;DHT22;32291;52.010;4.446;2022-12-20T04:54:03;10.40;99.90
47521;DHT22;32291;52.010;4.446;2022-12-20T04:56:08;10.50;99.90
47521;DHT22;32291;52.010;4.446;2022-12-20T04:57:10;10.50;99.90
47521;DHT22;32291;52.010;4.446;2022-12-20T04:59:14;10.50;99.90
47521;DHT22;32291;52.010;4.446;2022-12-20T05:00:15;10.50;99.90
47521;DHT22;32291;52.010;4.446;2022-12-20T05:01:18;10.50;99.90
47521;DHT22;32291;52.010;4.446;2022-12-20T05:03:23;10.50;99.90
47521;DHT22;32291;52.010;4.446;2022-12-20T05:04:26;10.50;99.90
47521;DHT22;32291;52.010;4.446;2022-12-20T05:05:28;10.50;99.90
47521;DHT22;32291;52.010;4.446;2022-12-20T05:06:30;10.50;99.90
47521;DHT22;32291;52.010;4.446;2022-12-20T05:07:31;10.60;99.90
47521;DHT22;32291;52.010;4.446;2022-12-20T05:08:34;10.50;99.90
47521;DHT22;32291;52.010;4.446;2022-12-20T05:09:35;10.50;99.90
47521;DHT22;32291;52.010;4.446;2022-12-20T05:10:37;10.50;99.90
47521;DHT22;32291;52.010;4.446;2022-12-20T05:11:39;10.60;99.90
47521;DHT22;32291;52.010;4.446;2022-12-20T05:12:40;10.60;99.90
47521;DHT22;32291;52.010;4.446;2022-12-20T05:14:44;10.60;99.90
47521;DHT22;32291;52.010;4.446;2022-12-20T05:15:50;10.60;99.90
47521;DHT22;32291;52.010;4.446;2022-12-20T05:16:52;10.60;99.90
47521;DHT22;32291;52.010;4.446;2022-12-20T05:17:54;10.60;99.90
47521;DHT22;32291;52.010;4.446;2022-12-20T05:19:00;10.60;99.90
47521;DHT22;32291;52.010;4.446;2022-12-20T05:20:05;10.70;99.90
47521;DHT22;32291;52.010;4.446;2022-12-20T05:21:07;10.60;99.90
47521;DHT22;32291;52.010;4.446;2022-12-20T05:22:27;10.60;99.90
47521;DHT22;32291;52.010;4.446;2022-12-20T05:23:48;10.60;99.90
47521;DHT22;32291;52.010;4.446;2022-12-20T05:25:10;10.70;99.90
47521;DHT22;32291;52.010;4.446;2022-12-20T05:26:50;10.70;99.90
47521;DHT22;32291;52.010;4.446;2022-12-20T05:27:52;10.70;99.90
47521;DHT22;32291;52.010;4.446;2022-12-20T05:29:55;10.60;99.90
47521;DHT22;32291;52.010;4.446;2022-12-20T05:30:57;10.60;99.90
47521;DHT22;32291;52.010;4.446;2022-12-20T05:32:00;10.60;99.90
47521;DHT22;32291;52.010;4.446;2022-12-20T05:33:02;10.70;99.90
47521;DHT22;32291;52.010;4.446;2022-12-20T05:34:04;10.70;99.90
47521;DHT22;32291;52.010;4.446;2022-12-20T05:35:06;9.60;99.90
47521;DHT22;32291;52.010;4.446;2022-12-20T05:36:08;10.70;99.90
47521;DHT22;32291;52.010;4.446;2022-12-20T05:38:13;10.90;99.90
47521;DHT22;32291;52.010;4.446;2022-12-20T05:39:15;10.60;99.90
47521;DHT22;32291;52.010;4.446;2022-12-20T05:40:17;10.70;99.90
47521;DHT22;32291;52.010;4.446;2022-12-20T05:41:19;10.70;99.90
47521;DHT22;32291;52.010;4.446;2022-12-20T05:43:22;11.80;99.90
47521;DHT22;32291;52.010;4.446;2022-12-20T05:44:24;10.70;99.90
47521;DHT22;32291;52.010;4.446;2022-12-20T05:45:26;10.70;99.90
47521;DHT22;32291;52.010;4.446;2022-12-20T05:46:27;10.80;99.90
47521;DHT22;32291;52.010;4.446;2022-12-20T05:47:29;10.70;99.90
47521;DHT22;32291;52.010;4.446;2022-12-20T05:48:33;10.70;99.90
47521;DHT22;32291;52.010;4.446;2022-12-20T05:49:35;10.70;99.90
47521;DHT22;32291;52.010;4.446;2022-12-20T05:50:37;10.80;99.90
47521;DHT22;32291;52.010;4.446;2022-12-20T05:51:38;10.70;99.90
47521;DHT22;32291;52.010;4.446;2022-12-20T05:52:40;10.70;99.90
47521;DHT22;32291;52.010;4.446;2022-12-20T05:53:42;10.70;99.90
47521;DHT22;32291;52.010;4.446;2022-12-20T05:54:44;10.70;99.90
47521;DHT22;32291;52.010;4.446;2022-12-20T05:55:50;10.70;99.90
47521;DHT22;32291;52.010;4.446;2022-12-20T05:56:54;10.80;99.90
47521;DHT22;32291;52.010;4.446;2022-12-20T05:57:55;10.80;99.90
47521;DHT22;32291;52.010;4.446;2022-12-20T05:58:57;10.80;99.90
47521;DHT22;32291;52.010;4.446;2022-12-20T06:00:01;10.80;99.90
47521;DHT22;32291;52.010;4.446;2022-12-20T06:01:06;11.00;99.90
47521;DHT22;32291;52.010;4.446;2022-12-20T06:04:15;11.00;99.90
47521;DHT22;32291;52.010;4.446;2022-12-20T06:05:16;13.60;99.90
47521;DHT22;32291;52.010;4.446;2022-12-20T06:06:18;11.10;99.90
47521;DHT22;32291;52.010;4.446;2022-12-20T06:07:20;11.10;99.90
47521;DHT22;32291;52.010;4.446;2022-12-20T06:09:25;10.60;99.90
47521;DHT22;32291;52.010;4.446;2022-12-20T06:10:27;11.10;99.90
47521;DHT22;32291;52.010;4.446;2022-12-20T06:12:32;11.10;99.90
47521;DHT22;32291;52.010;4.446;2022-12-20T06:13:35;11.10;99.90
47521;DHT22;32291;52.010;4.446;2022-12-20T06:14:37;11.10;99.90
47521;DHT22;32291;52.010;4.446;2022-12-20T06:15:38;11.10;99.90
47521;DHT22;32291;52.010;4.446;2022-12-20T06:16:40;11.10;99.90
47521;DHT22;32291;52.010;4.446;2022-12-20T06:17:42;11.10;99.90
47521;DHT22;32291;52.010;4.446;2022-12-20T06:18:44;11.10;99.90
47521;DHT22;32291;52.010;4.446;2022-12-20T06:19:46;11.20;99.90
47521;DHT22;32291;52.010;4.446;2022-12-20T06:20:51;11.20;99.90
47521;DHT22;32291;52.010;4.446;2022-12-20T06:21:54;11.20;99.90
47521;DHT22;32291;52.010;4.446;2022-12-20T06:22:55;11.20;99.90
47521;DHT22;32291;52.010;4.446;2022-12-20T06:23:57;11.10;99.90
47521;DHT22;32291;52.010;4.446;2022-12-20T06:24:59;11.10;99.90
47521;DHT22;32291;52.010;4.446;2022-12-20T06:26:02;11.10;99.90
47521;DHT22;32291;52.010;4.446;2022-12-20T06:27:05;11.10;99.90
47521;DHT22;32291;52.010;4.446;2022-12-20T06:28:09;11.00;99.90
47521;DHT22;32291;52.010;4.446;2022-12-20T06:29:11;11.10;99.90
47521;DHT22;32291;52.010;4.446;2022-12-20T06:30:15;11.10;99.90
47521;DHT22;32291;52.010;4.446;2022-12-20T06:32:20;11.10;99.90
47521;DHT22;32291;52.010;4.446;2022-12-20T06:33:22;10.90;99.90
47521;DHT22;32291;52.010;4.446;2022-12-20T06:34:24;11.10;99.90
47521;DHT22;32291;52.010;4.446;2022-12-20T06:35:26;11.00;99.90
47521;DHT22;32291;52.010;4.446;2022-12-20T06:36:29;11.10;99.90
47521;DHT22;32291;52.010;4.446;2022-12-20T06:37:31;11.10;99.90
47521;DHT22;32291;52.010;4.446;2022-12-20T06:38:33;11.00;99.90
47521;DHT22;32291;52.010;4.446;2022-12-20T06:39:34;11.00;99.90
47521;DHT22;32291;52.010;4.446;2022-12-20T06:40:36;11.00;99.90
47521;DHT22;32291;52.010;4.446;2022-12-20T06:41:39;11.10;99.90
47521;DHT22;32291;52.010;4.446;2022-12-20T06:42:41;11.10;99.90
47521;DHT22;32291;52.010;4.446;2022-12-20T06:43:44;11.10;99.90
47521;DHT22;32291;52.010;4.446;2022-12-20T06:44:46;11.10;99.90
47521;DHT22;32291;52.010;4.446;2022-12-20T06:45:48;11.10;99.90
47521;DHT22;32291;52.010;4.446;2022-12-20T06:46:50;11.10;99.90
47521;DHT22;32291;52.010;4.446;2022-12-20T06:47:52;11.10;99.90
47521;DHT22;32291;52.010;4.446;2022-12-20T06:48:55;11.10;99.90
47521;DHT22;32291;52.010;4.446;2022-12-20T06:49:57;11.10;99.90
47521;DHT22;32291;52.010;4.446;2022-12-20T06:50:59;11.10;99.90
47521;DHT22;32291;52.010;4.446;2022-12-20T06:52:01;11.10;99.90
47521;DHT22;32291;52.010;4.446;2022-12-20T06:53:02;11.10;99.90
47521;DHT22;32291;52.010;4.446;2022-12-20T06:54:05;11.10;99.90
47521;DHT22;32291;52.010;4.446;2022-12-20T06:55:07;11.10;99.90
47521;DHT22;32291;52.010;4.446;2022-12-20T06:56:09;11.20;99.90
47521;DHT22;32291;52.010;4.446;2022-12-20T06:57:10;11.20;99.90
47521;DHT22;32291;52.010;4.446;2022-12-20T06:58:12;11.20;99.90
47521;DHT22;32291;52.010;4.446;2022-12-20T06:59:14;11.20;99.90
47521;DHT22;32291;52.010;4.446;2022-12-20T07:00:16;11.20;99.90
47521;DHT22;32291;52.010;4.446;2022-12-20T07:01:18;11.30;99.90
47521;DHT22;32291;52.010;4.446;2022-12-20T07:02:20;11.20;99.90
47521;DHT22;32291;52.010;4.446;2022-12-20T07:03:22;11.30;99.90
47521;DHT22;32291;52.010;4.446;2022-12-20T07:04:23;11.30;99.90
47521;DHT22;32291;52.010;4.446;2022-12-20T07:05:25;11.20;99.90
47521;DHT22;32291;52.010;4.446;2022-12-20T07:06:27;11.20;99.90
47521;DHT22;32291;52.010;4.446;2022-12-20T07:07:29;11.30;99.90
47521;DHT22;32291;52.010;4.446;2022-12-20T07:08:32;11.30;99.90
47521;DHT22;32291;52.010;4.446;2022-12-20T07:09:34;11.30;99.90
47521;DHT22;32291;52.010;4.446;2022-12-20T07:10:38;11.30;99.90
47521;DHT22;32291;52.010;4.446;2022-12-20T07:11:39;11.30;99.90
47521;DHT22;32291;52.010;4.446;2022-12-20T07:12:43;11.30;99.90
47521;DHT22;32291;52.010;4.446;2022-12-20T07:13:45;11.40;99.90
47521;DHT22;32291;52.010;4.446;2022-12-20T07:14:47;11.40;99.90
47521;DHT22;32291;52.010;4.446;2022-12-20T07:15:55;11.40;99.90
47521;DHT22;32291;52.010;4.446;2022-12-20T07:17:04;11.40;99.90
47521;DHT22;32291;52.010;4.446;2022-12-20T07:18:07;11.40;99.90
47521;DHT22;32291;52.010;4.446;2022-12-20T07:19:11;11.40;99.90
47521;DHT22;32291;52.010;4.446;2022-12-20T07:20:14;11.40;99.90
47521;DHT22;32291;52.010;4.446;2022-12-20T07:21:17;11.40;99.90
47521;DHT22;32291;52.010;4.446;2022-12-20T07:22:19;11.40;99.90
47521;DHT22;32291;52.010;4.446;2022-12-20T07:23:22;11.40;99.90
47521;DHT22;32291;52.010;4.446;2022-12-20T07:25:25;11.30;99.90
47521;DHT22;32291;52.010;4.446;2022-12-20T07:26:27;11.30;99.90
47521;DHT22;32291;52.010;4.446;2022-12-20T07:27:29;11.20;99.90
47521;DHT22;32291;52.010;4.446;2022-12-20T07:28:31;11.20;99.90
47521;DHT22;32291;52.010;4.446;2022-12-20T07:29:33;11.10;99.90
47521;DHT22;32291;52.010;4.446;2022-12-20T07:30:36;10.90;99.90
47521;DHT22;32291;52.010;4.446;2022-12-20T07:32:40;11.00;99.90
47521;DHT22;32291;52.010;4.446;2022-12-20T07:33:42;10.90;99.90
47521;DHT22;32291;52.010;4.446;2022-12-20T07:34:44;10.80;99.90
47521;DHT22;32291;52.010;4.446;2022-12-20T07:35:46;10.90;99.90
47521;DHT22;32291;52.010;4.446;2022-12-20T07:36:48;10.70;99.90
47521;DHT22;32291;52.010;4.446;2022-12-20T07:37:50;10.70;99.90
47521;DHT22;32291;52.010;4.446;2022-12-20T07:38:52;10.60;99.90
47521;DHT22;32291;52.010;4.446;2022-12-20T07:39:53;10.60;99.90
47521;DHT22;32291;52.010;4.446;2022-12-20T07:40:56;9.60;99.90
47521;DHT22;32291;52.010;4.446;2022-12-20T07:41:58;10.50;99.90
47521;DHT22;32291;52.010;4.446;2022-12-20T07:43:00;10.50;99.90